sensor_id;sensor_type;location;lat;lon;timestamp;temperature;humidity
3942;DHT22;1985;48.592;8.850;2023-07-13T00:00:29;20.10;88.00
3942;DHT22;1985;48.592;8.850;2023-07-13T00:02:55;20.00;88.20
3942;DHT22;1985;48.592;8.850;2023-07-13T00:05:22;20.00;88.60
3942;DHT22;1985;48.592;8.850;2023-07-13T00:07:48;19.90;89.00
3942;DHT22;1985;48.592;8.850;2023-07-13T00:10:14;20.00;89.30
3942;DHT22;1985;48.592;8.850;2023-07-13T00:12:40;20.10;89.30
3942;DHT22;1985;48.592;8.850;2023-07-13T00:15:26;20.10;88.40
3942;DHT22;1985;48.592;8.850;2023-07-13T00:17:53;20.10;88.40
3942;DHT22;1985;48.592;8.850;2023-07-13T00:20:21;20.20;88.60
3942;DHT22;1985;48.592;8.850;2023-07-13T00:22:48;20.20;88.80
3942;DHT22;1985;48.592;8.850;2023-07-13T00:25:15;20.10;89.00
3942;DHT22;1985;48.592;8.850;2023-07-13T00:27:43;20.20;89.00
3942;DHT22;1985;48.592;8.850;2023-07-13T00:30:09;20.30;89.80
3942;DHT22;1985;48.592;8.850;2023-07-13T00:32:36;20.30;90.50
3942;DHT22;1985;48.592;8.850;2023-07-13T00:35:03;20.30;88.20
3942;DHT22;1985;48.592;8.850;2023-07-13T00:37:30;20.40;88.50
3942;DHT22;1985;48.592;8.850;2023-07-13T00:39:56;20.40;88.70
3942;DHT22;1985;48.592;8.850;2023-07-13T00:42:21;20.20;89.20
3942;DHT22;1985;48.592;8.850;2023-07-13T00:47:41;19.90;90.00
3942;DHT22;1985;48.592;8.850;2023-07-13T00:50:10;19.90;91.30
3942;DHT22;1985;48.592;8.850;2023-07-13T00:52:39;20.00;93.20
3942;DHT22;1985;48.592;8.850;2023-07-13T00:55:06;20.00;94.30
3942;DHT22;1985;48.592;8.850;2023-07-13T00:57:33;20.10;92.70
3942;DHT22;1985;48.592;8.850;2023-07-13T01:00:01;20.20;91.50
3942;DHT22;1985;48.592;8.850;2023-07-13T01:02:33;20.20;93.20
3942;DHT22;1985;48.592;8.850;2023-07-13T01:04:59;20.20;93.70
3942;DHT22;1985;48.592;8.850;2023-07-13T01:07:25;20.40;92.70
3942;DHT22;1985;48.592;8.850;2023-07-13T01:09:50;20.50;92.50
3942;DHT22;1985;48.592;8.850;2023-07-13T01:12:16;20.60;92.20
3942;DHT22;1985;48.592;8.850;2023-07-13T01:14:41;20.70;92.20
3942;DHT22;1985;48.592;8.850;2023-07-13T01:17:10;20.80;91.90
3942;DHT22;1985;48.592;8.850;2023-07-13T01:19:44;20.80;92.50
3942;DHT22;1985;48.592;8.850;2023-07-13T01:22:13;20.80;93.70
3942;DHT22;1985;48.592;8.850;2023-07-13T01:24:41;20.70;93.10
3942;DHT22;1985;48.592;8.850;2023-07-13T01:27:13;20.70;92.60
3942;DHT22;1985;48.592;8.850;2023-07-13T01:29:40;20.80;93.10
3942;DHT22;1985;48.592;8.850;2023-07-13T01:32:12;20.80;91.70
3942;DHT22;1985;48.592;8.850;2023-07-13T01:34:38;20.50;92.20
3942;DHT22;1985;48.592;8.850;2023-07-13T01:37:11;20.20;92.80
3942;DHT22;1985;48.592;8.850;2023-07-13T01:39:37;19.90;93.50
3942;DHT22;1985;48.592;8.850;2023-07-13T01:42:03;19.80;95.30
3942;DHT22;1985;48.592;8.850;2023-07-13T01:44:29;19.80;95.10
3942;DHT22;1985;48.592;8.850;2023-07-13T01:46:54;19.80;93.80
3942;DHT22;1985;48.592;8.850;2023-07-13T01:49:20;19.70;95.00
3942;DHT22;1985;48.592;8.850;2023-07-13T01:51:46;19.70;94.90
3942;DHT22;1985;48.592;8.850;2023-07-13T01:54:12;19.60;94.40
3942;DHT22;1985;48.592;8.850;2023-07-13T01:56:37;19.40;95.90
3942;DHT22;1985;48.592;8.850;2023-07-13T01:59:04;19.40;94.30
3942;DHT22;1985;48.592;8.850;2023-07-13T02:01:29;19.10;94.50
3942;DHT22;1985;48.592;8.850;2023-07-13T02:03:55;19.10;95.50
3942;DHT22;1985;48.592;8.850;2023-07-13T02:06:20;19.10;95.10
3942;DHT22;1985;48.592;8.850;2023-07-13T02:08:46;19.10;94.80
3942;DHT22;1985;48.592;8.850;2023-07-13T02:11:12;19.10;94.60
3942;DHT22;1985;48.592;8.850;2023-07-13T02:13:38;19.20;94.60
3942;DHT22;1985;48.592;8.850;2023-07-13T02:16:03;19.20;94.30
3942;DHT22;1985;48.592;8.850;2023-07-13T02:18:32;19.20;96.70
3942;DHT22;1985;48.592;8.850;2023-07-13T02:20:58;19.10;97.40
3942;DHT22;1985;48.592;8.850;2023-07-13T02:23:24;19.20;95.20
3942;DHT22;1985;48.592;8.850;2023-07-13T02:25:53;19.20;94.30
3942;DHT22;1985;48.592;8.850;2023-07-13T02:28:19;19.10;94.10
3942;DHT22;1985;48.592;8.850;2023-07-13T02:30:44;18.90;94.70
3942;DHT22;1985;48.592;8.850;2023-07-13T02:33:10;18.80;95.00
3942;DHT22;1985;48.592;8.850;2023-07-13T02:35:36;18.60;95.00
3942;DHT22;1985;48.592;8.850;2023-07-13T02:38:01;18.40;96.00
3942;DHT22;1985;48.592;8.850;2023-07-13T02:40:27;18.30;96.30
3942;DHT22;1985;48.592;8.850;2023-07-13T02:42:52;18.30;96.70
3942;DHT22;1985;48.592;8.850;2023-07-13T02:45:18;18.30;96.40
3942;DHT22;1985;48.592;8.850;2023-07-13T02:47:44;18.20;96.30
3942;DHT22;1985;48.592;8.850;2023-07-13T02:50:09;18.30;98.00
3942;DHT22;1985;48.592;8.850;2023-07-13T02:52:35;18.50;97.20
3942;DHT22;1985;48.592;8.850;2023-07-13T02:55:01;18.60;96.40
3942;DHT22;1985;48.592;8.850;2023-07-13T02:57:26;18.60;96.40
3942;DHT22;1985;48.592;8.850;2023-07-13T02:59:53;18.70;97.30
3942;DHT22;1985;48.592;8.850;2023-07-13T03:02:20;18.60;96.10
3942;DHT22;1985;48.592;8.850;2023-07-13T03:04:45;18.60;96.00
3942;DHT22;1985;48.592;8.850;2023-07-13T03:07:11;18.50;95.60
3942;DHT22;1985;48.592;8.850;2023-07-13T03:09:37;18.30;95.90
3942;DHT22;1985;48.592;8.850;2023-07-13T03:12:02;18.10;96.40
3942;DHT22;1985;48.592;8.850;2023-07-13T03:14:28;17.90;97.10
3942;DHT22;1985;48.592;8.850;2023-07-13T03:16:54;17.50;98.40
3942;DHT22;1985;48.592;8.850;2023-07-13T03:19:19;17.50;99.10
3942;DHT22;1985;48.592;8.850;2023-07-13T03:21:45;17.70;98.90
3942;DHT22;1985;48.592;8.850;2023-07-13T03:24:11;17.90;99.30
3942;DHT22;1985;48.592;8.850;2023-07-13T03:26:37;18.00;98.80
3942;DHT22;1985;48.592;8.850;2023-07-13T03:29:03;18.20;98.70
3942;DHT22;1985;48.592;8.850;2023-07-13T03:31:33;18.30;98.90
3942;DHT22;1985;48.592;8.850;2023-07-13T03:33:59;18.40;99.00
3942;DHT22;1985;48.592;8.850;2023-07-13T03:36:28;18.50;98.70
3942;DHT22;1985;48.592;8.850;2023-07-13T03:38:56;18.50;99.90
3942;DHT22;1985;48.592;8.850;2023-07-13T03:41:23;18.60;99.50
3942;DHT22;1985;48.592;8.850;2023-07-13T03:43:49;18.60;99.90
3942;DHT22;1985;48.592;8.850;2023-07-13T03:46:16;18.70;99.90
3942;DHT22;1985;48.592;8.850;2023-07-13T03:48:44;18.70;99.60
3942;DHT22;1985;48.592;8.850;2023-07-13T03:51:11;18.80;97.70
3942;DHT22;1985;48.592;8.850;2023-07-13T03:53:40;18.80;97.30
3942;DHT22;1985;48.592;8.850;2023-07-13T03:56:06;18.80;96.90
3942;DHT22;1985;48.592;8.850;2023-07-13T03:58:35;18.90;97.10
3942;DHT22;1985;48.592;8.850;2023-07-13T04:01:02;18.90;98.70
3942;DHT22;1985;48.592;8.850;2023-07-13T04:03:29;19.00;98.60
3942;DHT22;1985;48.592;8.850;2023-07-13T04:05:59;19.00;99.80
3942;DHT22;1985;48.592;8.850;2023-07-13T04:08:30;19.20;98.30
3942;DHT22;1985;48.592;8.850;2023-07-13T04:10:56;19.20;97.40
3942;DHT22;1985;48.592;8.850;2023-07-13T04:13:23;19.20;98.90
3942;DHT22;1985;48.592;8.850;2023-07-13T04:15:49;19.20;98.70
3942;DHT22;1985;48.592;8.850;2023-07-13T04:18:15;19.20;98.30
3942;DHT22;1985;48.592;8.850;2023-07-13T04:20:40;19.30;98.40
3942;DHT22;1985;48.592;8.850;2023-07-13T04:23:06;19.40;98.90
3942;DHT22;1985;48.592;8.850;2023-07-13T04:25:32;19.40;98.60
3942;DHT22;1985;48.592;8.850;2023-07-13T04:27:57;19.40;98.60
3942;DHT22;1985;48.592;8.850;2023-07-13T04:30:23;19.50;98.80
3942;DHT22;1985;48.592;8.850;2023-07-13T04:32:51;19.50;98.90
3942;DHT22;1985;48.592;8.850;2023-07-13T04:35:21;19.40;97.80
3942;DHT22;1985;48.592;8.850;2023-07-13T04:37:48;19.40;98.20
3942;DHT22;1985;48.592;8.850;2023-07-13T04:40:16;19.30;98.10
3942;DHT22;1985;48.592;8.850;2023-07-13T04:42:43;19.30;98.40
3942;DHT22;1985;48.592;8.850;2023-07-13T04:45:09;19.20;98.30
3942;DHT22;1985;48.592;8.850;2023-07-13T04:47:35;19.20;98.70
3942;DHT22;1985;48.592;8.850;2023-07-13T04:50:01;19.30;98.10
3942;DHT22;1985;48.592;8.850;2023-07-13T04:52:26;19.30;98.30
3942;DHT22;1985;48.592;8.850;2023-07-13T04:54:52;19.30;98.30
3942;DHT22;1985;48.592;8.850;2023-07-13T04:57:18;19.40;97.40
3942;DHT22;1985;48.592;8.850;2023-07-13T04:59:43;19.50;97.50
3942;DHT22;1985;48.592;8.850;2023-07-13T05:02:10;19.50;97.80
3942;DHT22;1985;48.592;8.850;2023-07-13T05:04:35;19.50;97.60
3942;DHT22;1985;48.592;8.850;2023-07-13T05:07:01;19.50;96.30
3942;DHT22;1985;48.592;8.850;2023-07-13T05:09:26;19.30;96.40
3942;DHT22;1985;48.592;8.850;2023-07-13T05:11:52;19.20;97.50
3942;DHT22;1985;48.592;8.850;2023-07-13T05:14:18;19.20;98.50
3942;DHT22;1985;48.592;8.850;2023-07-13T05:16:43;19.30;98.40
3942;DHT22;1985;48.592;8.850;2023-07-13T05:19:09;19.40;98.80
3942;DHT22;1985;48.592;8.850;2023-07-13T05:21:35;19.50;98.80
3942;DHT22;1985;48.592;8.850;2023-07-13T05:24:01;19.60;98.40
3942;DHT22;1985;48.592;8.850;2023-07-13T05:26:27;19.70;98.50
3942;DHT22;1985;48.592;8.850;2023-07-13T05:28:52;19.80;98.20
3942;DHT22;1985;48.592;8.850;2023-07-13T05:31:18;19.90;98.50
3942;DHT22;1985;48.592;8.850;2023-07-13T05:33:44;19.80;98.50
3942;DHT22;1985;48.592;8.850;2023-07-13T05:36:09;19.90;97.30
3942;DHT22;1985;48.592;8.850;2023-07-13T05:38:35;19.80;97.60
3942;DHT22;1985;48.592;8.850;2023-07-13T05:41:01;19.70;98.60
3942;DHT22;1985;48.592;8.850;2023-07-13T05:43:26;19.60;98.40
3942;DHT22;1985;48.592;8.850;2023-07-13T05:45:56;19.50;98.60
3942;DHT22;1985;48.592;8.850;2023-07-13T05:48:22;19.30;99.00
3942;DHT22;1985;48.592;8.850;2023-07-13T05:50:48;19.20;99.80
3942;DHT22;1985;48.592;8.850;2023-07-13T05:53:15;19.10;99.90
3942;DHT22;1985;48.592;8.850;2023-07-13T05:55:44;19.10;99.90
3942;DHT22;1985;48.592;8.850;2023-07-13T05:58:13;19.10;99.90
3942;DHT22;1985;48.592;8.850;2023-07-13T06:00:39;19.20;99.90
3942;DHT22;1985;48.592;8.850;2023-07-13T06:03:06;19.20;99.90
3942;DHT22;1985;48.592;8.850;2023-07-13T06:05:32;19.30;99.90
3942;DHT22;1985;48.592;8.850;2023-07-13T06:07:59;19.30;99.90
3942;DHT22;1985;48.592;8.850;2023-07-13T06:10:25;19.40;99.90
3942;DHT22;1985;48.592;8.850;2023-07-13T06:12:50;19.60;99.90
3942;DHT22;1985;48.592;8.850;2023-07-13T06:15:16;19.70;99.60
3942;DHT22;1985;48.592;8.850;2023-07-13T06:17:42;19.80;97.90
3942;DHT22;1985;48.592;8.850;2023-07-13T06:20:08;19.80;99.00
3942;DHT22;1985;48.592;8.850;2023-07-13T06:22:33;19.90;97.50
3942;DHT22;1985;48.592;8.850;2023-07-13T06:24:59;20.00;97.00
3942;DHT22;1985;48.592;8.850;2023-07-13T06:27:24;20.10;96.60
3942;DHT22;1985;48.592;8.850;2023-07-13T06:29:50;20.20;96.80
3942;DHT22;1985;48.592;8.850;2023-07-13T06:32:17;20.30;95.50
3942;DHT22;1985;48.592;8.850;2023-07-13T06:34:42;20.40;91.90
3942;DHT22;1985;48.592;8.850;2023-07-13T06:37:09;20.40;91.00
3942;DHT22;1985;48.592;8.850;2023-07-13T06:39:35;20.50;92.90
3942;DHT22;1985;48.592;8.850;2023-07-13T06:42:00;20.60;91.80
3942;DHT22;1985;48.592;8.850;2023-07-13T06:44:26;20.70;86.80
3942;DHT22;1985;48.592;8.850;2023-07-13T06:46:52;20.50;84.50
3942;DHT22;1985;48.592;8.850;2023-07-13T06:49:17;20.20;86.40
3942;DHT22;1985;48.592;8.850;2023-07-13T06:51:43;20.30;90.50
3942;DHT22;1985;48.592;8.850;2023-07-13T06:54:08;20.50;90.70
3942;DHT22;1985;48.592;8.850;2023-07-13T06:56:34;20.70;90.60
3942;DHT22;1985;48.592;8.850;2023-07-13T06:58:59;21.00;90.10
3942;DHT22;1985;48.592;8.850;2023-07-13T07:01:25;21.20;89.40
3942;DHT22;1985;48.592;8.850;2023-07-13T07:03:51;21.40;88.00
3942;DHT22;1985;48.592;8.850;2023-07-13T07:06:19;21.50;85.40
3942;DHT22;1985;48.592;8.850;2023-07-13T07:08:46;21.60;79.60
3942;DHT22;1985;48.592;8.850;2023-07-13T07:11:13;21.60;78.60
3942;DHT22;1985;48.592;8.850;2023-07-13T07:13:39;21.70;82.30
3942;DHT22;1985;48.592;8.850;2023-07-13T07:16:04;21.80;81.80
3942;DHT22;1985;48.592;8.850;2023-07-13T07:18:30;21.90;78.90
3942;DHT22;1985;48.592;8.850;2023-07-13T07:20:56;21.90;75.50
3942;DHT22;1985;48.592;8.850;2023-07-13T07:23:22;21.90;79.90
3942;DHT22;1985;48.592;8.850;2023-07-13T07:25:47;22.00;78.90
3942;DHT22;1985;48.592;8.850;2023-07-13T07:28:15;22.10;78.50
3942;DHT22;1985;48.592;8.850;2023-07-13T07:30:46;22.30;79.30
3942;DHT22;1985;48.592;8.850;2023-07-13T07:33:13;22.40;79.40
3942;DHT22;1985;48.592;8.850;2023-07-13T07:35:38;22.50;76.60
3942;DHT22;1985;48.592;8.850;2023-07-13T07:38:04;22.50;75.00
3942;DHT22;1985;48.592;8.850;2023-07-13T07:40:30;22.50;74.90
3942;DHT22;1985;48.592;8.850;2023-07-13T07:42:57;22.60;72.20
3942;DHT22;1985;48.592;8.850;2023-07-13T07:45:23;22.60;70.80
3942;DHT22;1985;48.592;8.850;2023-07-13T07:47:49;22.30;69.00
3942;DHT22;1985;48.592;8.850;2023-07-13T07:50:14;22.20;71.40
3942;DHT22;1985;48.592;8.850;2023-07-13T07:52:40;22.10;69.30
3942;DHT22;1985;48.592;8.850;2023-07-13T07:55:07;22.00;69.90
3942;DHT22;1985;48.592;8.850;2023-07-13T07:57:32;21.90;70.80
3942;DHT22;1985;48.592;8.850;2023-07-13T07:59:58;22.00;70.90
3942;DHT22;1985;48.592;8.850;2023-07-13T08:02:25;22.20;63.40
3942;DHT22;1985;48.592;8.850;2023-07-13T08:04:51;22.10;62.90
3942;DHT22;1985;48.592;8.850;2023-07-13T08:07:16;22.10;65.00
3942;DHT22;1985;48.592;8.850;2023-07-13T08:09:42;22.10;64.20
3942;DHT22;1985;48.592;8.850;2023-07-13T08:12:08;22.20;62.90
3942;DHT22;1985;48.592;8.850;2023-07-13T08:14:33;22.30;64.90
3942;DHT22;1985;48.592;8.850;2023-07-13T08:16:59;22.40;69.10
3942;DHT22;1985;48.592;8.850;2023-07-13T08:19:25;22.50;69.20
3942;DHT22;1985;48.592;8.850;2023-07-13T08:21:50;22.70;67.80
3942;DHT22;1985;48.592;8.850;2023-07-13T08:24:16;22.90;63.80
3942;DHT22;1985;48.592;8.850;2023-07-13T08:26:44;22.90;65.30
3942;DHT22;1985;48.592;8.850;2023-07-13T08:29:10;23.00;63.80
3942;DHT22;1985;48.592;8.850;2023-07-13T08:31:36;23.10;63.40
3942;DHT22;1985;48.592;8.850;2023-07-13T08:34:01;23.00;65.90
3942;DHT22;1985;48.592;8.850;2023-07-13T08:36:28;23.10;64.30
3942;DHT22;1985;48.592;8.850;2023-07-13T08:38:54;23.20;65.70
3942;DHT22;1985;48.592;8.850;2023-07-13T08:41:20;23.30;62.80
3942;DHT22;1985;48.592;8.850;2023-07-13T08:43:48;23.50;64.60
3942;DHT22;1985;48.592;8.850;2023-07-13T08:46:20;23.60;59.90
3942;DHT22;1985;48.592;8.850;2023-07-13T08:48:52;23.60;65.40
3942;DHT22;1985;48.592;8.850;2023-07-13T08:51:37;23.60;60.40
3942;DHT22;1985;48.592;8.850;2023-07-13T08:54:21;23.60;63.30
3942;DHT22;1985;48.592;8.850;2023-07-13T08:56:49;23.40;61.20
3942;DHT22;1985;48.592;8.850;2023-07-13T08:59:20;23.50;62.30
3942;DHT22;1985;48.592;8.850;2023-07-13T09:04:32;23.60;60.10
3942;DHT22;1985;48.592;8.850;2023-07-13T09:07:07;23.50;60.50
3942;DHT22;1985;48.592;8.850;2023-07-13T09:15:36;23.90;62.10
3942;DHT22;1985;48.592;8.850;2023-07-13T09:20:46;23.90;58.30
3942;DHT22;1985;48.592;8.850;2023-07-13T09:23:17;23.90;57.80
3942;DHT22;1985;48.592;8.850;2023-07-13T09:25:47;23.90;60.20
3942;DHT22;1985;48.592;8.850;2023-07-13T09:28:26;23.90;59.00
3942;DHT22;1985;48.592;8.850;2023-07-13T09:31:20;24.10;61.70
3942;DHT22;1985;48.592;8.850;2023-07-13T09:33:48;24.40;59.80
3942;DHT22;1985;48.592;8.850;2023-07-13T09:36:23;24.30;57.80
3942;DHT22;1985;48.592;8.850;2023-07-13T09:41:48;24.50;59.30
3942;DHT22;1985;48.592;8.850;2023-07-13T09:44:17;24.30;58.00
3942;DHT22;1985;48.592;8.850;2023-07-13T09:46:54;24.20;58.00
3942;DHT22;1985;48.592;8.850;2023-07-13T09:49:25;24.30;58.70
3942;DHT22;1985;48.592;8.850;2023-07-13T09:52:05;24.50;58.90
3942;DHT22;1985;48.592;8.850;2023-07-13T09:54:34;24.40;58.90
3942;DHT22;1985;48.592;8.850;2023-07-13T09:57:02;24.20;58.60
3942;DHT22;1985;48.592;8.850;2023-07-13T09:59:33;24.30;56.20
3942;DHT22;1985;48.592;8.850;2023-07-13T10:02:00;24.30;56.00
3942;DHT22;1985;48.592;8.850;2023-07-13T10:04:33;24.30;57.30
3942;DHT22;1985;48.592;8.850;2023-07-13T10:07:07;24.40;57.60
3942;DHT22;1985;48.592;8.850;2023-07-13T10:09:33;24.20;56.50
3942;DHT22;1985;48.592;8.850;2023-07-13T10:11:59;24.10;58.00
3942;DHT22;1985;48.592;8.850;2023-07-13T10:14:25;24.30;57.20
3942;DHT22;1985;48.592;8.850;2023-07-13T10:16:59;24.50;57.40
3942;DHT22;1985;48.592;8.850;2023-07-13T10:19:29;24.50;56.90
3942;DHT22;1985;48.592;8.850;2023-07-13T10:21:59;24.60;57.60
3942;DHT22;1985;48.592;8.850;2023-07-13T10:24:27;24.50;55.80
3942;DHT22;1985;48.592;8.850;2023-07-13T10:27:10;24.30;55.30
3942;DHT22;1985;48.592;8.850;2023-07-13T10:29:42;24.30;57.30
3942;DHT22;1985;48.592;8.850;2023-07-13T10:32:13;24.30;55.80
3942;DHT22;1985;48.592;8.850;2023-07-13T10:34:40;24.70;55.50
3942;DHT22;1985;48.592;8.850;2023-07-13T10:37:17;24.90;55.00
3942;DHT22;1985;48.592;8.850;2023-07-13T10:39:44;25.40;54.70
3942;DHT22;1985;48.592;8.850;2023-07-13T10:42:14;25.70;54.60
3942;DHT22;1985;48.592;8.850;2023-07-13T10:44:40;25.90;50.10
3942;DHT22;1985;48.592;8.850;2023-07-13T10:47:08;25.70;50.70
3942;DHT22;1985;48.592;8.850;2023-07-13T10:49:39;25.90;52.10
3942;DHT22;1985;48.592;8.850;2023-07-13T10:58:01;26.40;51.00
3942;DHT22;1985;48.592;8.850;2023-07-13T11:00:30;27.00;49.10
3942;DHT22;1985;48.592;8.850;2023-07-13T11:02:57;27.00;46.60
3942;DHT22;1985;48.592;8.850;2023-07-13T11:05:32;26.90;48.70
3942;DHT22;1985;48.592;8.850;2023-07-13T11:08:36;27.00;49.30
3942;DHT22;1985;48.592;8.850;2023-07-13T11:11:02;27.20;47.30
3942;DHT22;1985;48.592;8.850;2023-07-13T11:14:00;27.20;48.00
3942;DHT22;1985;48.592;8.850;2023-07-13T11:21:28;28.30;48.50
3942;DHT22;1985;48.592;8.850;2023-07-13T11:26:55;28.50;43.80
3942;DHT22;1985;48.592;8.850;2023-07-13T11:29:25;28.00;44.30
3942;DHT22;1985;48.592;8.850;2023-07-13T11:31:53;27.80;44.50
3942;DHT22;1985;48.592;8.850;2023-07-13T11:36:52;28.50;45.30
3942;DHT22;1985;48.592;8.850;2023-07-13T11:39:19;28.90;43.90
3942;DHT22;1985;48.592;8.850;2023-07-13T11:41:54;28.90;43.30
3942;DHT22;1985;48.592;8.850;2023-07-13T11:44:24;29.20;46.00
3942;DHT22;1985;48.592;8.850;2023-07-13T11:46:59;29.30;44.50
3942;DHT22;1985;48.592;8.850;2023-07-13T11:49:30;28.90;43.90
3942;DHT22;1985;48.592;8.850;2023-07-13T11:51:58;28.90;45.80
3942;DHT22;1985;48.592;8.850;2023-07-13T11:54:43;29.20;45.00
3942;DHT22;1985;48.592;8.850;2023-07-13T11:57:30;29.70;46.50
3942;DHT22;1985;48.592;8.850;2023-07-13T12:00:04;29.80;44.10
3942;DHT22;1985;48.592;8.850;2023-07-13T12:02:38;29.40;45.30
3942;DHT22;1985;48.592;8.850;2023-07-13T12:05:05;29.60;44.10
3942;DHT22;1985;48.592;8.850;2023-07-13T12:07:33;29.80;42.70
3942;DHT22;1985;48.592;8.850;2023-07-13T12:12:58;29.10;43.00
3942;DHT22;1985;48.592;8.850;2023-07-13T12:18:01;28.40;44.90
3942;DHT22;1985;48.592;8.850;2023-07-13T12:20:33;28.60;43.50
3942;DHT22;1985;48.592;8.850;2023-07-13T12:23:00;28.70;42.90
3942;DHT22;1985;48.592;8.850;2023-07-13T12:25:28;28.20;41.90
3942;DHT22;1985;48.592;8.850;2023-07-13T12:27:54;28.30;43.10
3942;DHT22;1985;48.592;8.850;2023-07-13T12:30:31;28.40;43.70
3942;DHT22;1985;48.592;8.850;2023-07-13T12:35:30;28.30;43.20
3942;DHT22;1985;48.592;8.850;2023-07-13T12:37:59;27.90;42.40
3942;DHT22;1985;48.592;8.850;2023-07-13T12:40:32;27.60;42.40
3942;DHT22;1985;48.592;8.850;2023-07-13T12:42:59;27.40;43.50
3942;DHT22;1985;48.592;8.850;2023-07-13T12:45:26;27.50;43.90
3942;DHT22;1985;48.592;8.850;2023-07-13T12:47:58;27.50;43.70
3942;DHT22;1985;48.592;8.850;2023-07-13T12:50:30;27.70;44.30
3942;DHT22;1985;48.592;8.850;2023-07-13T12:53:02;28.20;45.00
3942;DHT22;1985;48.592;8.850;2023-07-13T12:55:47;28.20;41.30
3942;DHT22;1985;48.592;8.850;2023-07-13T12:58:27;27.90;44.20
3942;DHT22;1985;48.592;8.850;2023-07-13T13:01:02;28.20;42.30
3942;DHT22;1985;48.592;8.850;2023-07-13T13:03:37;28.30;44.30
3942;DHT22;1985;48.592;8.850;2023-07-13T13:06:05;28.40;44.30
3942;DHT22;1985;48.592;8.850;2023-07-13T13:08:36;28.50;44.50
3942;DHT22;1985;48.592;8.850;2023-07-13T13:11:02;28.60;44.10
3942;DHT22;1985;48.592;8.850;2023-07-13T13:13:28;28.10;42.00
3942;DHT22;1985;48.592;8.850;2023-07-13T13:15:54;27.60;44.20
3942;DHT22;1985;48.592;8.850;2023-07-13T13:18:22;27.60;44.30
3942;DHT22;1985;48.592;8.850;2023-07-13T13:20:49;27.80;44.70
3942;DHT22;1985;48.592;8.850;2023-07-13T13:23:19;27.90;40.40
3942;DHT22;1985;48.592;8.850;2023-07-13T13:25:49;27.60;41.40
3942;DHT22;1985;48.592;8.850;2023-07-13T13:28:17;27.70;41.40
3942;DHT22;1985;48.592;8.850;2023-07-13T13:30:45;27.80;43.30
3942;DHT22;1985;48.592;8.850;2023-07-13T13:33:14;28.10;42.40
3942;DHT22;1985;48.592;8.850;2023-07-13T13:35:41;28.30;40.40
3942;DHT22;1985;48.592;8.850;2023-07-13T13:38:14;28.00;40.30
3942;DHT22;1985;48.592;8.850;2023-07-13T13:40:44;27.80;42.60
3942;DHT22;1985;48.592;8.850;2023-07-13T13:43:32;27.80;42.80
3942;DHT22;1985;48.592;8.850;2023-07-13T13:45:59;27.40;43.60
3942;DHT22;1985;48.592;8.850;2023-07-13T13:48:34;27.00;43.00
3942;DHT22;1985;48.592;8.850;2023-07-13T13:51:16;26.60;43.30
3942;DHT22;1985;48.592;8.850;2023-07-13T13:53:43;26.50;44.00
3942;DHT22;1985;48.592;8.850;2023-07-13T13:56:08;26.80;44.90
3942;DHT22;1985;48.592;8.850;2023-07-13T13:58:34;27.30;45.70
3942;DHT22;1985;48.592;8.850;2023-07-13T14:01:00;27.70;43.90
3942;DHT22;1985;48.592;8.850;2023-07-13T14:03:26;27.70;44.50
3942;DHT22;1985;48.592;8.850;2023-07-13T14:05:53;27.80;43.80
3942;DHT22;1985;48.592;8.850;2023-07-13T14:08:21;27.60;43.10
3942;DHT22;1985;48.592;8.850;2023-07-13T14:10:50;27.40;43.60
3942;DHT22;1985;48.592;8.850;2023-07-13T14:13:22;27.30;44.70
3942;DHT22;1985;48.592;8.850;2023-07-13T14:15:52;27.50;45.90
3942;DHT22;1985;48.592;8.850;2023-07-13T14:18:18;27.70;43.90
3942;DHT22;1985;48.592;8.850;2023-07-13T14:20:47;27.80;45.50
3942;DHT22;1985;48.592;8.850;2023-07-13T14:23:15;27.50;44.60
3942;DHT22;1985;48.592;8.850;2023-07-13T14:25:42;27.50;46.10
3942;DHT22;1985;48.592;8.850;2023-07-13T14:28:23;27.70;45.60
3942;DHT22;1985;48.592;8.850;2023-07-13T14:30:50;27.70;44.50
3942;DHT22;1985;48.592;8.850;2023-07-13T14:33:16;27.80;45.30
3942;DHT22;1985;48.592;8.850;2023-07-13T14:35:42;27.70;45.40
3942;DHT22;1985;48.592;8.850;2023-07-13T14:38:14;27.60;45.90
3942;DHT22;1985;48.592;8.850;2023-07-13T14:40:40;27.20;45.80
3942;DHT22;1985;48.592;8.850;2023-07-13T14:43:10;26.70;47.10
3942;DHT22;1985;48.592;8.850;2023-07-13T14:45:44;26.60;48.40
3942;DHT22;1985;48.592;8.850;2023-07-13T14:48:23;26.60;49.40
3942;DHT22;1985;48.592;8.850;2023-07-13T14:50:57;26.60;49.70
3942;DHT22;1985;48.592;8.850;2023-07-13T14:53:26;26.60;50.50
3942;DHT22;1985;48.592;8.850;2023-07-13T14:55:55;26.50;49.90
3942;DHT22;1985;48.592;8.850;2023-07-13T14:58:20;26.70;50.10
3942;DHT22;1985;48.592;8.850;2023-07-13T15:00:46;26.70;48.50
3942;DHT22;1985;48.592;8.850;2023-07-13T15:03:20;26.40;50.80
3942;DHT22;1985;48.592;8.850;2023-07-13T15:05:49;26.30;51.20
3942;DHT22;1985;48.592;8.850;2023-07-13T15:08:16;26.30;50.10
3942;DHT22;1985;48.592;8.850;2023-07-13T15:10:42;26.40;50.10
3942;DHT22;1985;48.592;8.850;2023-07-13T15:13:16;26.40;49.80
3942;DHT22;1985;48.592;8.850;2023-07-13T15:15:46;26.50;50.00
3942;DHT22;1985;48.592;8.850;2023-07-13T15:18:14;26.60;50.90
3942;DHT22;1985;48.592;8.850;2023-07-13T15:20:39;26.60;51.40
3942;DHT22;1985;48.592;8.850;2023-07-13T15:23:05;26.40;49.30
3942;DHT22;1985;48.592;8.850;2023-07-13T15:25:32;26.20;50.30
3942;DHT22;1985;48.592;8.850;2023-07-13T15:27:59;26.20;50.40
3942;DHT22;1985;48.592;8.850;2023-07-13T15:30:27;26.40;50.80
3942;DHT22;1985;48.592;8.850;2023-07-13T15:33:00;26.40;50.10
3942;DHT22;1985;48.592;8.850;2023-07-13T15:35:28;26.50;50.00
3942;DHT22;1985;48.592;8.850;2023-07-13T15:37:54;26.60;49.90
3942;DHT22;1985;48.592;8.850;2023-07-13T15:40:20;26.70;50.90
3942;DHT22;1985;48.592;8.850;2023-07-13T15:42:47;26.80;50.20
3942;DHT22;1985;48.592;8.850;2023-07-13T15:45:23;26.80;49.60
3942;DHT22;1985;48.592;8.850;2023-07-13T15:47:53;26.80;48.60
3942;DHT22;1985;48.592;8.850;2023-07-13T15:50:21;26.90;49.90
3942;DHT22;1985;48.592;8.850;2023-07-13T15:52:55;26.90;49.00
3942;DHT22;1985;48.592;8.850;2023-07-13T15:55:23;26.90;49.40
3942;DHT22;1985;48.592;8.850;2023-07-13T15:57:51;26.80;49.00
3942;DHT22;1985;48.592;8.850;2023-07-13T16:00:26;26.70;48.30
3942;DHT22;1985;48.592;8.850;2023-07-13T16:02:53;26.60;50.00
3942;DHT22;1985;48.592;8.850;2023-07-13T16:05:20;26.40;50.30
3942;DHT22;1985;48.592;8.850;2023-07-13T16:07:49;26.40;50.70
3942;DHT22;1985;48.592;8.850;2023-07-13T16:10:36;26.40;49.70
3942;DHT22;1985;48.592;8.850;2023-07-13T16:13:13;26.10;49.90
3942;DHT22;1985;48.592;8.850;2023-07-13T16:15:39;26.10;49.60
3942;DHT22;1985;48.592;8.850;2023-07-13T16:18:13;26.20;49.40
3942;DHT22;1985;48.592;8.850;2023-07-13T16:20:39;26.20;50.40
3942;DHT22;1985;48.592;8.850;2023-07-13T16:23:05;26.20;49.10
3942;DHT22;1985;48.592;8.850;2023-07-13T16:25:31;26.10;49.10
3942;DHT22;1985;48.592;8.850;2023-07-13T16:27:58;26.00;49.80
3942;DHT22;1985;48.592;8.850;2023-07-13T16:30:29;26.00;49.20
3942;DHT22;1985;48.592;8.850;2023-07-13T16:32:59;26.00;50.40
3942;DHT22;1985;48.592;8.850;2023-07-13T16:35:31;25.90;48.60
3942;DHT22;1985;48.592;8.850;2023-07-13T16:38:01;25.80;50.00
3942;DHT22;1985;48.592;8.850;2023-07-13T16:40:32;25.90;49.40
3942;DHT22;1985;48.592;8.850;2023-07-13T16:42:59;25.90;48.90
3942;DHT22;1985;48.592;8.850;2023-07-13T16:45:30;26.00;50.30
3942;DHT22;1985;48.592;8.850;2023-07-13T16:48:00;26.00;50.60
3942;DHT22;1985;48.592;8.850;2023-07-13T16:50:30;25.90;49.90